createdAt,value
2023-01-19T00:00:21.012Z,5.45
2023-01-19T00:02:48.036Z,6.07
2023-01-19T00:05:14.928Z,5.85
2023-01-19T00:07:41.951Z,6.30
2023-01-19T00:10:10.098Z,5.35
2023-01-19T00:12:36.858Z,5.00
2023-01-19T00:17:30.424Z,6.70
2023-01-19T00:19:57.018Z,5.82
2023-01-19T00:22:23.730Z,6.65
2023-01-19T00:27:17.251Z,6.18
2023-01-19T00:29:43.874Z,5.90
2023-01-19T00:32:10.476Z,7.72
2023-01-19T00:34:39.468Z,6.53
2023-01-19T00:37:09.857Z,6.05
2023-01-19T00:39:36.567Z,6.18
2023-01-19T00:44:48.725Z,5.88
2023-01-19T00:47:15.348Z,5.35
2023-01-19T00:49:41.972Z,5.95
2023-01-19T00:52:08.632Z,5.63
2023-01-19T00:54:35.296Z,6.63
2023-01-19T00:57:03.352Z,6.53
2023-01-19T00:59:30.041Z,6.22
2023-01-19T01:04:23.535Z,5.75
2023-01-19T01:09:16.861Z,5.13
2023-01-19T01:14:11.631Z,5.10
2023-01-19T01:16:38.470Z,6.68
2023-01-19T01:19:05.107Z,5.38
2023-01-19T01:21:31.938Z,5.32
2023-01-19T01:23:58.594Z,5.47
2023-01-19T01:26:27.066Z,5.93
2023-01-19T01:28:54.439Z,5.60
2023-01-19T01:33:47.771Z,4.20
2023-01-19T01:38:41.577Z,4.90
2023-01-19T01:41:08.486Z,5.25
2023-01-19T01:43:45.765Z,5.50
2023-01-19T01:46:15.297Z,5.88
2023-01-19T01:48:46.453Z,5.40
2023-01-19T01:51:26.109Z,5.85
2023-01-19T01:54:06.876Z,6.05
2023-01-19T01:56:39.571Z,5.20
2023-01-19T01:59:10.726Z,6.07
2023-01-19T02:01:56.094Z,5.47
2023-01-19T02:04:23.730Z,5.32
2023-01-19T02:07:09.213Z,5.45
2023-01-19T02:09:56.067Z,4.85
2023-01-19T02:12:42.459Z,5.95
2023-01-19T02:15:18.162Z,5.15
2023-01-19T02:17:44.982Z,5.80
2023-01-19T02:20:12.439Z,6.75
2023-01-19T02:23:03.110Z,5.15
2023-01-19T02:25:30.111Z,6.18
2023-01-19T02:27:57.050Z,5.78
2023-01-19T02:30:24.148Z,5.25
2023-01-19T02:32:50.916Z,5.95
2023-01-19T02:37:44.949Z,5.25
2023-01-19T02:40:14.881Z,5.68
2023-01-19T02:42:49.685Z,5.80
2023-01-19T02:45:22.350Z,6.70
2023-01-19T02:47:51.704Z,6.10
2023-01-19T02:50:37.276Z,6.00
2023-01-19T02:53:12.731Z,5.78
2023-01-19T02:55:43.283Z,5.65
2023-01-19T02:58:23.110Z,6.55
2023-01-19T03:01:16.912Z,5.78
2023-01-19T03:03:51.158Z,6.25
2023-01-19T03:06:33.180Z,5.80
2023-01-19T03:09:11.171Z,5.22
2023-01-19T03:11:42.896Z,7.50
2023-01-19T03:14:15.731Z,6.93
2023-01-19T03:16:48.337Z,5.20
2023-01-19T03:19:28.565Z,6.07
2023-01-19T03:21:59.133Z,5.40
2023-01-19T03:24:30.777Z,5.45
2023-01-19T03:27:06.582Z,6.22
2023-01-19T03:29:34.926Z,5.75
2023-01-19T03:32:06.794Z,5.38
2023-01-19T03:34:34.697Z,5.93
2023-01-19T03:37:04.923Z,7.07
2023-01-19T03:39:31.960Z,7.43
2023-01-19T03:42:03.082Z,7.18
2023-01-19T03:44:32.210Z,6.20
2023-01-19T03:46:59.660Z,5.93
2023-01-19T03:49:26.720Z,6.45
2023-01-19T03:51:56.467Z,7.28
2023-01-19T03:54:23.389Z,7.22
2023-01-19T03:56:50.179Z,6.57
2023-01-19T03:59:17.576Z,6.80
2023-01-19T04:01:44.424Z,7.03
2023-01-19T04:04:11.275Z,6.28
2023-01-19T04:09:04.575Z,6.75
2023-01-19T04:11:31.524Z,7.10
2023-01-19T04:13:58.242Z,6.85
2023-01-19T04:18:52.558Z,6.13
2023-01-19T04:21:20.270Z,6.80
2023-01-19T04:23:47.060Z,6.50
2023-01-19T04:26:13.779Z,7.45
2023-01-19T04:31:07.716Z,6.05
2023-01-19T04:33:34.710Z,6.40
2023-01-19T04:36:01.994Z,7.60
2023-01-19T04:38:28.728Z,7.65
2023-01-19T04:40:55.655Z,6.85
2023-01-19T04:43:23.792Z,7.60
2023-01-19T04:45:51.298Z,6.28
2023-01-19T04:48:18.689Z,7.20
2023-01-19T04:50:45.542Z,7.25
2023-01-19T04:53:13.636Z,7.43
2023-01-19T04:55:40.494Z,6.72
2023-01-19T04:58:07.136Z,7.15
2023-01-19T05:03:01.665Z,8.13
2023-01-19T05:05:28.676Z,7.25
2023-01-19T05:07:55.554Z,6.28
2023-01-19T05:10:22.289Z,7.75
2023-01-19T05:12:49.495Z,7.32
2023-01-19T05:15:16.247Z,9.73
2023-01-19T05:17:42.948Z,7.25
2023-01-19T05:22:37.087Z,6.15
2023-01-19T05:25:03.934Z,8.05
2023-01-19T05:27:30.584Z,7.85
2023-01-19T05:29:57.196Z,7.82
2023-01-19T05:32:23.826Z,7.57
2023-01-19T05:37:17.255Z,6.55
2023-01-19T05:39:43.815Z,7.32
2023-01-19T05:42:10.476Z,6.88
2023-01-19T05:47:03.678Z,6.60
2023-01-19T05:49:30.420Z,7.00
2023-01-19T05:51:57.037Z,7.45
2023-01-19T05:54:23.773Z,6.95
2023-01-19T05:59:23.798Z,7.10
2023-01-19T06:01:51.844Z,7.95
2023-01-19T06:04:19.912Z,7.95
2023-01-19T06:06:50.478Z,7.85
2023-01-19T06:09:17.737Z,8.57
2023-01-19T06:11:45.164Z,6.57
2023-01-19T06:14:12.282Z,6.65
2023-01-19T06:16:39.638Z,7.45
2023-01-19T06:19:06.394Z,8.40
2023-01-19T06:24:01.163Z,7.20
2023-01-19T06:26:27.833Z,7.93
2023-01-19T06:31:21.218Z,6.47
2023-01-19T06:33:47.919Z,7.50
2023-01-19T06:36:14.546Z,6.97
2023-01-19T06:38:41.211Z,7.75
2023-01-19T06:41:07.911Z,6.90
2023-01-19T06:46:02.210Z,7.45
2023-01-19T06:48:29.240Z,6.97
2023-01-19T06:50:58.473Z,7.70
2023-01-19T06:53:27.699Z,8.65
2023-01-19T06:55:57.908Z,7.88
2023-01-19T06:58:25.153Z,7.38
2023-01-19T07:03:21.986Z,6.60
2023-01-19T07:05:52.925Z,5.28
2023-01-19T07:08:19.574Z,7.70
2023-01-19T07:13:37.465Z,7.07
2023-01-19T07:16:07.291Z,7.70
2023-01-19T07:18:34.377Z,7.65
2023-01-19T07:21:01.210Z,6.78
2023-01-19T07:23:30.251Z,7.80
2023-01-19T07:25:58.409Z,6.92
2023-01-19T07:28:25.167Z,7.65
2023-01-19T07:30:52.992Z,7.32
2023-01-19T07:33:19.684Z,7.80
2023-01-19T07:38:14.417Z,6.50
2023-01-19T07:40:41.147Z,7.40
2023-01-19T07:45:35.919Z,6.65
2023-01-19T07:48:02.572Z,7.40
2023-01-19T07:50:29.711Z,7.55
2023-01-19T07:52:56.749Z,8.32
2023-01-19T07:55:24.501Z,8.07
2023-01-19T07:57:51.777Z,8.05
2023-01-19T08:00:21.799Z,7.00
2023-01-19T08:02:51.106Z,8.07
2023-01-19T08:05:19.049Z,8.48
2023-01-19T08:07:46.330Z,7.35
2023-01-19T08:10:14.922Z,8.05
2023-01-19T08:12:42.419Z,7.68
2023-01-19T08:15:10.760Z,8.23
2023-01-19T08:17:37.676Z,7.03
2023-01-19T08:20:05.010Z,8.02
2023-01-19T08:22:31.619Z,8.60
2023-01-19T08:27:24.907Z,7.38
2023-01-19T08:29:51.564Z,8.70
2023-01-19T08:34:45.467Z,7.20
2023-01-19T08:37:12.716Z,6.75
2023-01-19T08:39:39.320Z,7.10
2023-01-19T08:42:05.929Z,7.50
2023-01-19T08:46:59.938Z,7.07
2023-01-19T08:49:26.620Z,6.63
2023-01-19T08:51:53.452Z,6.85
2023-01-19T08:56:48.287Z,6.70
2023-01-19T09:01:41.636Z,6.22
2023-01-19T09:04:08.662Z,6.82
2023-01-19T09:06:35.368Z,6.82
2023-01-19T09:11:28.805Z,7.75
2023-01-19T09:16:22.187Z,6.68
2023-01-19T09:18:48.931Z,6.63
2023-01-19T09:23:42.291Z,6.47
2023-01-19T09:26:09.903Z,6.65
2023-01-19T09:28:37.582Z,7.18
2023-01-19T09:31:06.635Z,6.65
2023-01-19T09:33:33.867Z,7.20
2023-01-19T09:36:01.956Z,7.47
2023-01-19T09:38:38.517Z,7.40
2023-01-19T09:41:16.170Z,7.57
2023-01-19T09:43:51.418Z,8.50
2023-01-19T09:46:29.928Z,7.35
2023-01-19T09:48:59.628Z,7.65
2023-01-19T09:51:38.971Z,7.95
2023-01-19T09:56:47.509Z,7.30
2023-01-19T09:59:25.844Z,9.13
2023-01-19T10:02:20.248Z,7.97
2023-01-19T10:05:06.209Z,7.95
2023-01-19T10:08:14.833Z,8.25
2023-01-19T10:10:45.868Z,7.18
2023-01-19T10:13:21.597Z,7.68
2023-01-19T10:15:54.016Z,6.97
2023-01-19T10:18:30.900Z,7.40
2023-01-19T10:21:22.606Z,7.55
2023-01-19T10:23:52.195Z,7.70
2023-01-19T10:26:24.415Z,7.40
2023-01-19T10:28:55.433Z,7.80
2023-01-19T10:31:24.192Z,7.22
2023-01-19T10:33:52.247Z,6.75
2023-01-19T10:36:22.080Z,5.88
2023-01-19T10:38:49.142Z,7.88
2023-01-19T10:41:25.995Z,7.10
2023-01-19T10:44:02.249Z,6.88
2023-01-19T10:46:38.559Z,6.75
2023-01-19T10:49:06.387Z,7.05
2023-01-19T10:51:33.309Z,7.70
2023-01-19T10:54:04.177Z,6.70
2023-01-19T10:56:34.842Z,7.35
2023-01-19T10:59:03.997Z,7.57
2023-01-19T11:01:31.109Z,7.07
2023-01-19T11:04:05.300Z,7.15
2023-01-19T11:06:33.770Z,7.75
2023-01-19T11:09:18.402Z,7.90
2023-01-19T11:11:52.947Z,7.45
2023-01-19T11:14:24.667Z,7.18
2023-01-19T11:16:56.750Z,6.88
2023-01-19T11:19:29.857Z,7.70
2023-01-19T11:22:24.720Z,6.90
2023-01-19T11:24:52.082Z,6.05
2023-01-19T11:27:20.716Z,6.43
2023-01-19T11:29:58.834Z,6.85
2023-01-19T11:32:27.880Z,6.35
2023-01-19T11:34:54.565Z,4.97
2023-01-19T11:37:21.131Z,4.82
2023-01-19T11:42:14.892Z,5.13
2023-01-19T11:45:06.679Z,4.93
2023-01-19T11:47:46.997Z,5.13
2023-01-19T11:50:33.080Z,4.50
2023-01-19T11:53:09.177Z,4.53
2023-01-19T11:55:49.784Z,4.30
2023-01-19T11:58:18.582Z,4.20
2023-01-19T12:01:02.687Z,4.05
2023-01-19T12:03:43.704Z,3.90
2023-01-19T12:06:15.344Z,3.33
2023-01-19T12:08:49.519Z,4.13
2023-01-19T12:11:32.129Z,3.25
2023-01-19T12:14:00.309Z,3.22
2023-01-19T12:16:30.158Z,2.53
2023-01-19T12:19:01.317Z,2.63
2023-01-19T12:21:28.408Z,3.08
2023-01-19T12:24:10.247Z,2.45
2023-01-19T12:26:37.543Z,2.95
2023-01-19T12:29:13.365Z,3.75
2023-01-19T12:31:42.713Z,3.25
2023-01-19T12:34:31.420Z,3.60
2023-01-19T12:37:03.901Z,4.22
2023-01-19T12:39:32.137Z,4.80
2023-01-19T12:42:15.090Z,4.18
2023-01-19T12:44:43.481Z,4.70
2023-01-19T12:47:16.023Z,3.67
2023-01-19T12:50:06.440Z,4.65
2023-01-19T12:52:51.159Z,4.13
2023-01-19T12:55:23.204Z,3.95
2023-01-19T12:57:55.965Z,4.68
2023-01-19T13:00:22.529Z,5.05
2023-01-19T13:05:33.219Z,5.45
2023-01-19T13:08:05.454Z,5.63
2023-01-19T13:11:00.040Z,5.00
2023-01-19T13:13:31.853Z,5.10
2023-01-19T13:16:18.503Z,4.85
2023-01-19T13:18:59.050Z,4.97
2023-01-19T13:21:41.531Z,5.60
2023-01-19T13:24:23.797Z,5.50
2023-01-19T13:26:50.391Z,4.30
2023-01-19T13:31:49.595Z,6.03
2023-01-19T13:34:22.481Z,4.70
2023-01-19T13:36:55.024Z,5.35
2023-01-19T13:39:37.754Z,5.25
2023-01-19T13:42:14.711Z,5.13
2023-01-19T13:44:51.264Z,4.70
2023-01-19T13:47:41.560Z,5.60
2023-01-19T13:50:20.636Z,5.22
2023-01-19T13:52:48.910Z,4.68
2023-01-19T13:55:16.746Z,5.18
2023-01-19T13:57:45.396Z,6.07
2023-01-19T14:00:12.312Z,5.03
2023-01-19T14:02:59.004Z,5.20
2023-01-19T14:05:38.367Z,4.97
2023-01-19T14:08:13.145Z,4.65
2023-01-19T14:10:45.927Z,5.78
2023-01-19T14:13:18.842Z,5.28
2023-01-19T14:18:19.308Z,4.57
2023-01-19T14:20:53.584Z,6.30
2023-01-19T14:23:59.208Z,5.78
2023-01-19T14:26:38.305Z,5.68
2023-01-19T14:29:18.613Z,5.65
2023-01-19T14:31:47.638Z,6.28
2023-01-19T14:34:41.559Z,5.95
2023-01-19T14:37:19.731Z,5.93
2023-01-19T14:39:49.397Z,5.88
2023-01-19T14:42:21.995Z,6.22
2023-01-19T14:44:53.982Z,5.65
2023-01-19T14:47:32.571Z,6.60
2023-01-19T14:50:07.365Z,6.35
2023-01-19T14:52:40.760Z,7.15
2023-01-19T14:55:20.849Z,7.28
2023-01-19T14:57:48.115Z,6.95
2023-01-19T15:00:19.622Z,6.70
2023-01-19T15:02:47.079Z,5.63
2023-01-19T15:05:14.287Z,6.63
2023-01-19T15:07:43.882Z,6.10
2023-01-19T15:10:21.257Z,5.22
2023-01-19T15:12:50.337Z,6.05
2023-01-19T15:15:32.253Z,5.53
2023-01-19T15:18:01.339Z,5.22
2023-01-19T15:20:28.372Z,4.32
2023-01-19T15:22:54.978Z,5.43
2023-01-19T15:25:26.109Z,5.03
2023-01-19T15:27:57.179Z,5.70
2023-01-19T15:30:30.996Z,5.05
2023-01-19T15:32:58.880Z,4.72
2023-01-19T15:35:28.490Z,4.47
2023-01-19T15:37:55.157Z,4.90
2023-01-19T15:40:23.185Z,5.20
2023-01-19T15:42:50.628Z,5.70
2023-01-19T15:45:32.729Z,5.60
2023-01-19T15:48:01.547Z,5.03
2023-01-19T15:50:28.186Z,4.97
2023-01-19T15:52:54.863Z,4.80
2023-01-19T15:55:21.651Z,4.75
2023-01-19T15:57:48.781Z,4.25
2023-01-19T16:00:16.150Z,5.65
2023-01-19T16:02:42.849Z,4.50
2023-01-19T16:05:10.212Z,5.30
2023-01-19T16:07:37.119Z,5.30
2023-01-19T16:10:06.216Z,6.22
2023-01-19T16:12:32.813Z,5.30
2023-01-19T16:14:59.399Z,4.93
2023-01-19T16:17:26.033Z,6.47
2023-01-19T16:19:52.655Z,5.18
2023-01-19T16:22:19.268Z,5.75
2023-01-19T16:27:12.566Z,5.22
2023-01-19T16:29:39.226Z,5.32
2023-01-19T16:32:06.046Z,5.35
2023-01-19T16:34:33.071Z,5.45
2023-01-19T16:36:59.797Z,6.10
2023-01-19T16:39:26.504Z,6.32
2023-01-19T16:41:53.103Z,5.47
2023-01-19T16:44:19.760Z,6.85
2023-01-19T16:46:49.547Z,6.82
2023-01-19T16:49:21.225Z,6.72
2023-01-19T16:51:48.965Z,6.95
2023-01-19T16:54:17.876Z,6.57
2023-01-19T16:56:44.640Z,6.80
2023-01-19T16:59:13.450Z,6.45
2023-01-19T17:01:43.134Z,7.43
2023-01-19T17:04:10.014Z,6.43
2023-01-19T17:06:36.735Z,6.18
2023-01-19T17:09:04.184Z,6.55
2023-01-19T17:11:32.337Z,7.10
2023-01-19T17:14:00.891Z,7.50
2023-01-19T17:16:29.226Z,7.72
2023-01-19T17:19:00.813Z,7.55
2023-01-19T17:21:27.928Z,6.35
2023-01-19T17:23:55.573Z,6.15
2023-01-19T17:26:25.109Z,5.95
2023-01-19T17:28:52.296Z,6.30
2023-01-19T17:31:21.606Z,6.65
2023-01-19T17:33:49.673Z,6.10
2023-01-19T17:36:22.130Z,7.35
2023-01-19T17:38:49.642Z,7.63
2023-01-19T17:41:21.760Z,7.45
2023-01-19T17:43:50.267Z,7.25
2023-01-19T17:46:17.494Z,8.07
2023-01-19T17:48:44.193Z,8.35
2023-01-19T17:51:12.934Z,8.02
2023-01-19T17:53:41.704Z,7.53
2023-01-19T17:56:11.184Z,6.80
2023-01-19T17:58:38.414Z,6.45
2023-01-19T18:01:20.068Z,6.95
2023-01-19T18:03:46.722Z,6.68
2023-01-19T18:06:13.816Z,6.93
2023-01-19T18:08:47.115Z,7.05
2023-01-19T18:11:15.214Z,7.13
2023-01-19T18:13:44.847Z,7.78
2023-01-19T18:16:14.943Z,8.05
2023-01-19T18:18:41.989Z,7.55
2023-01-19T18:21:12.622Z,8.35
2023-01-19T18:23:39.504Z,8.57
2023-01-19T18:26:12.170Z,8.15
2023-01-19T18:28:39.215Z,10.40
2023-01-19T18:31:15.040Z,12.75
2023-01-19T18:33:42.079Z,13.60
2023-01-19T18:36:09.429Z,15.98
2023-01-19T18:38:36.739Z,17.13
2023-01-19T18:41:05.813Z,18.75
2023-01-19T18:43:32.726Z,19.20
2023-01-19T18:45:59.515Z,16.75
2023-01-19T18:48:26.268Z,16.67
2023-01-19T18:50:53.581Z,17.55
2023-01-19T18:53:20.844Z,18.40
2023-01-19T18:55:57.269Z,18.83
2023-01-19T18:58:28.404Z,15.90
2023-01-19T19:00:57.278Z,14.48
2023-01-19T19:03:24.068Z,13.57
2023-01-19T19:05:50.863Z,13.60
2023-01-19T19:08:17.580Z,13.23
2023-01-19T19:10:44.539Z,12.63
2023-01-19T19:13:15.923Z,11.63
2023-01-19T19:15:44.275Z,14.40
2023-01-19T19:18:13.515Z,12.75
2023-01-19T19:20:41.881Z,13.10
2023-01-19T19:23:08.605Z,13.80
2023-01-19T19:25:37.894Z,15.32
2023-01-19T19:28:04.722Z,12.25
2023-01-19T19:30:34.195Z,13.25
2023-01-19T19:33:01.093Z,11.82
2023-01-19T19:35:27.913Z,12.40
2023-01-19T19:37:58.000Z,10.45
2023-01-19T19:40:26.536Z,9.93
2023-01-19T19:42:53.397Z,10.52
2023-01-19T19:47:46.799Z,9.20
2023-01-19T19:50:14.110Z,10.25
2023-01-19T19:52:42.151Z,9.93
2023-01-19T19:55:10.608Z,9.45
2023-01-19T19:57:37.540Z,9.27
2023-01-19T20:00:05.332Z,9.18
2023-01-19T20:02:32.409Z,8.88
2023-01-19T20:04:59.132Z,8.05
2023-01-19T20:07:28.211Z,10.15
2023-01-19T20:09:55.125Z,12.25
2023-01-19T20:12:21.925Z,10.85
2023-01-19T20:14:48.666Z,14.05
2023-01-19T20:17:15.393Z,12.68
2023-01-19T20:19:43.721Z,11.65
2023-01-19T20:22:10.456Z,11.98
2023-01-19T20:24:37.149Z,10.20
2023-01-19T20:27:04.067Z,9.60
2023-01-19T20:29:30.763Z,9.75
2023-01-19T20:31:57.691Z,11.25
2023-01-19T20:34:32.051Z,12.15
2023-01-19T20:37:00.576Z,12.15
2023-01-19T20:39:28.952Z,11.32
2023-01-19T20:41:55.740Z,13.55
2023-01-19T20:44:24.634Z,13.00
2023-01-19T20:46:52.900Z,14.02
2023-01-19T20:49:20.346Z,13.20
2023-01-19T20:51:47.827Z,14.93
2023-01-19T20:54:17.080Z,15.07
2023-01-19T20:56:43.907Z,18.02
2023-01-19T20:59:11.382Z,17.00
2023-01-19T21:01:39.281Z,16.88
2023-01-19T21:04:06.667Z,14.68
2023-01-19T21:06:33.739Z,14.82
2023-01-19T21:09:00.492Z,14.32
2023-01-19T21:11:27.597Z,14.90
2023-01-19T21:13:57.360Z,16.58
2023-01-19T21:16:26.363Z,16.40
2023-01-19T21:18:53.657Z,15.48
2023-01-19T21:21:29.778Z,13.95
2023-01-19T21:24:02.020Z,15.90
2023-01-19T21:26:33.707Z,13.73
2023-01-19T21:29:02.543Z,13.68
2023-01-19T21:31:29.882Z,13.93
2023-01-19T21:33:59.893Z,13.93
2023-01-19T21:36:27.012Z,12.82
2023-01-19T21:38:55.816Z,14.13
2023-01-19T21:41:22.596Z,13.95
2023-01-19T21:46:31.999Z,12.32
2023-01-19T21:49:01.126Z,12.55
2023-01-19T21:51:33.544Z,12.73
2023-01-19T21:54:01.456Z,12.82
2023-01-19T21:56:29.477Z,13.10
2023-01-19T21:58:57.169Z,14.77
2023-01-19T22:01:24.373Z,14.68
2023-01-19T22:03:55.702Z,15.27
2023-01-19T22:06:22.850Z,19.15
2023-01-19T22:08:49.683Z,17.25
2023-01-19T22:11:18.812Z,18.48
2023-01-19T22:13:45.574Z,14.88
2023-01-19T22:16:17.139Z,13.32
2023-01-19T22:18:46.445Z,12.65
2023-01-19T22:21:16.248Z,14.35
2023-01-19T22:23:43.840Z,14.20
2023-01-19T22:26:11.442Z,14.10
2023-01-19T22:28:38.453Z,16.05
2023-01-19T22:31:07.219Z,15.90
2023-01-19T22:33:34.022Z,14.30
2023-01-19T22:36:14.298Z,15.73
2023-01-19T22:38:41.271Z,15.52
2023-01-19T22:41:16.282Z,14.02
2023-01-19T22:43:43.894Z,16.23
2023-01-19T22:46:11.061Z,15.40
2023-01-19T22:48:37.892Z,12.85
2023-01-19T22:51:04.574Z,15.05
2023-01-19T22:53:31.723Z,12.10
2023-01-19T22:55:58.342Z,14.05
2023-01-19T23:00:51.612Z,13.63
2023-01-19T23:03:18.218Z,10.63
2023-01-19T23:08:11.446Z,10.52
2023-01-19T23:13:05.612Z,13.27
2023-01-19T23:17:59.413Z,10.25
2023-01-19T23:22:52.543Z,12.65
2023-01-19T23:27:45.726Z,12.10
2023-01-19T23:32:39.061Z,10.55
2023-01-19T23:37:32.416Z,8.63
2023-01-19T23:42:25.650Z,7.82
2023-01-19T23:44:52.408Z,11.13
2023-01-19T23:47:19.008Z,11.95
2023-01-19T23:49:45.615Z,11.50
2023-01-19T23:52:12.205Z,10.25
2023-01-19T23:54:38.768Z,11.40
2023-01-19T23:57:05.374Z,9.82
